createdAt,value
2022-11-20T00:00:55.378Z,20.40
2022-11-20T00:03:23.283Z,21.52
2022-11-20T00:05:51.184Z,23.40
2022-11-20T00:08:18.869Z,24.17
2022-11-20T00:10:46.590Z,27.33
2022-11-20T00:13:14.263Z,25.05
2022-11-20T00:15:43.312Z,20.85
2022-11-20T00:18:10.995Z,19.83
2022-11-20T00:20:38.682Z,23.98
2022-11-20T00:23:06.822Z,21.85
2022-11-20T00:25:36.355Z,21.00
2022-11-20T00:28:04.179Z,22.98
2022-11-20T00:30:31.878Z,22.52
2022-11-20T00:33:00.912Z,20.85
2022-11-20T00:35:28.645Z,22.20
2022-11-20T00:37:56.299Z,22.80
2022-11-20T00:40:24.023Z,23.17
2022-11-20T00:42:51.727Z,22.42
2022-11-20T00:45:19.400Z,20.55
2022-11-20T00:47:47.082Z,21.95
2022-11-20T00:50:16.270Z,21.98
2022-11-20T00:52:43.937Z,22.13
2022-11-20T00:55:11.613Z,19.15
2022-11-20T00:57:39.268Z,20.10
2022-11-20T01:00:08.446Z,20.20
2022-11-20T01:02:36.140Z,21.98
2022-11-20T01:05:03.881Z,20.75
2022-11-20T01:07:34.190Z,20.73
2022-11-20T01:10:01.861Z,21.25
2022-11-20T01:12:29.491Z,19.42
2022-11-20T01:14:57.126Z,21.85
2022-11-20T01:17:24.942Z,21.48
2022-11-20T01:19:52.664Z,20.20
2022-11-20T01:22:20.378Z,19.58
2022-11-20T01:24:49.447Z,20.02
2022-11-20T01:27:17.122Z,20.33
2022-11-20T01:29:44.817Z,19.75
2022-11-20T01:32:12.438Z,20.00
2022-11-20T01:34:40.102Z,21.38
2022-11-20T01:37:07.806Z,20.23
2022-11-20T01:39:35.551Z,20.60
2022-11-20T01:42:22.365Z,22.05
2022-11-20T01:44:53.577Z,20.50
2022-11-20T01:47:27.502Z,18.75
2022-11-20T01:50:00.827Z,22.08
2022-11-20T01:52:36.359Z,20.23
2022-11-20T01:55:09.180Z,21.48
2022-11-20T01:57:39.843Z,21.63
2022-11-20T02:00:10.792Z,22.10
2022-11-20T02:02:42.941Z,21.77
2022-11-20T02:05:18.615Z,19.42
2022-11-20T02:07:47.447Z,19.95
2022-11-20T02:10:15.947Z,21.40
2022-11-20T02:13:03.038Z,20.40
2022-11-20T02:15:30.776Z,20.17
2022-11-20T02:17:58.838Z,20.42
2022-11-20T02:20:26.856Z,19.70
2022-11-20T02:23:00.397Z,19.50
2022-11-20T02:25:32.009Z,22.05
2022-11-20T02:27:59.793Z,19.20
2022-11-20T02:30:27.579Z,21.30
2022-11-20T02:32:55.223Z,20.15
2022-11-20T02:35:44.592Z,20.20
2022-11-20T02:38:12.894Z,20.20
2022-11-20T02:40:42.314Z,20.00
2022-11-20T02:43:10.672Z,18.83
2022-11-20T02:45:38.954Z,19.05
2022-11-20T02:48:08.262Z,18.30
2022-11-20T02:50:38.961Z,18.63
2022-11-20T02:53:06.646Z,22.95
2022-11-20T02:55:34.654Z,20.92
2022-11-20T02:58:03.781Z,18.65
2022-11-20T03:00:31.600Z,17.88
2022-11-20T03:02:59.377Z,19.05
2022-11-20T03:05:27.026Z,20.25
2022-11-20T03:07:54.758Z,19.30
2022-11-20T03:10:22.412Z,17.33
2022-11-20T03:12:54.926Z,18.48
2022-11-20T03:15:24.002Z,17.90
2022-11-20T03:17:55.244Z,18.70
2022-11-20T03:20:22.862Z,20.63
2022-11-20T03:22:50.484Z,18.83
2022-11-20T03:25:18.313Z,19.65
2022-11-20T03:27:45.974Z,19.92
2022-11-20T03:30:14.762Z,20.08
2022-11-20T03:32:43.774Z,19.20
2022-11-20T03:35:12.064Z,17.30
2022-11-20T03:37:39.745Z,21.27
2022-11-20T03:40:08.835Z,20.10
2022-11-20T03:42:48.459Z,18.25
2022-11-20T03:45:16.818Z,19.52
2022-11-20T03:47:46.489Z,18.25
2022-11-20T03:50:15.309Z,17.75
2022-11-20T03:52:43.517Z,19.15
2022-11-20T03:55:11.627Z,21.02
2022-11-20T03:57:39.241Z,17.92
2022-11-20T04:00:08.139Z,19.80
2022-11-20T04:02:35.794Z,16.70
2022-11-20T04:05:05.144Z,16.70
2022-11-20T04:07:32.833Z,17.90
2022-11-20T04:10:00.512Z,17.38
2022-11-20T04:12:28.190Z,18.48
2022-11-20T04:14:55.780Z,19.95
2022-11-20T04:17:23.430Z,20.20
2022-11-20T04:19:51.043Z,19.35
2022-11-20T04:22:20.193Z,17.90
2022-11-20T04:24:47.871Z,19.52
2022-11-20T04:27:15.486Z,19.70
2022-11-20T04:29:43.125Z,17.17
2022-11-20T04:32:10.896Z,20.10
2022-11-20T04:34:38.567Z,18.63
2022-11-20T04:37:06.275Z,18.70
2022-11-20T04:39:35.208Z,19.67
2022-11-20T04:42:20.290Z,16.50
2022-11-20T04:44:47.908Z,18.63
2022-11-20T04:47:15.574Z,18.83
2022-11-20T04:49:43.233Z,17.27
2022-11-20T04:52:10.960Z,18.85
2022-11-20T04:54:39.923Z,18.13
2022-11-20T04:57:12.970Z,18.25
2022-11-20T04:59:42.127Z,19.65
2022-11-20T05:02:10.085Z,19.48
2022-11-20T05:04:37.715Z,17.40
2022-11-20T05:07:05.800Z,17.48
2022-11-20T05:09:33.457Z,18.63
2022-11-20T05:12:02.484Z,18.23
2022-11-20T05:14:30.137Z,18.95
2022-11-20T05:16:57.979Z,17.70
2022-11-20T05:19:25.626Z,19.50
2022-11-20T05:21:53.335Z,17.48
2022-11-20T05:24:21.107Z,18.23
2022-11-20T05:26:48.790Z,17.33
2022-11-20T05:29:17.968Z,19.20
2022-11-20T05:31:45.692Z,19.52
2022-11-20T05:34:13.331Z,19.25
2022-11-20T05:36:40.981Z,19.60
2022-11-20T05:39:08.717Z,18.65
2022-11-20T05:41:36.390Z,16.77
2022-11-20T05:44:04.171Z,18.70
2022-11-20T05:46:33.151Z,17.77
2022-11-20T05:49:00.792Z,17.45
2022-11-20T05:51:28.744Z,19.45
2022-11-20T05:53:58.337Z,20.95
2022-11-20T05:56:26.273Z,19.13
2022-11-20T05:58:53.907Z,19.73
2022-11-20T06:01:23.556Z,19.80
2022-11-20T06:03:54.501Z,18.80
2022-11-20T06:06:22.421Z,17.90
2022-11-20T06:08:50.391Z,19.15
2022-11-20T06:11:19.109Z,18.92
2022-11-20T06:13:47.509Z,18.08
2022-11-20T06:16:17.389Z,19.20
2022-11-20T06:18:45.048Z,19.17
2022-11-20T06:21:16.069Z,20.15
2022-11-20T06:23:43.842Z,19.80
2022-11-20T06:26:16.361Z,18.15
2022-11-20T06:28:44.113Z,18.52
2022-11-20T06:31:14.257Z,19.92
2022-11-20T06:33:42.234Z,18.92
2022-11-20T06:36:11.490Z,16.95
2022-11-20T06:38:41.212Z,18.60
2022-11-20T06:41:12.341Z,17.00
2022-11-20T06:43:40.069Z,19.80
2022-11-20T06:46:07.715Z,21.45
2022-11-20T06:48:35.326Z,18.63
2022-11-20T06:51:05.292Z,17.75
2022-11-20T06:53:33.111Z,19.20
2022-11-20T06:56:02.118Z,18.25
2022-11-20T06:58:31.322Z,22.30
2022-11-20T07:01:00.572Z,21.02
2022-11-20T07:03:28.367Z,19.77
2022-11-20T07:05:57.308Z,19.02
2022-11-20T07:08:25.245Z,24.23
2022-11-20T07:10:52.992Z,19.90
2022-11-20T07:13:22.022Z,19.67
2022-11-20T07:15:49.736Z,19.52
2022-11-20T07:18:17.400Z,21.55
2022-11-20T07:20:45.252Z,22.05
2022-11-20T07:23:13.012Z,18.65
2022-11-20T07:25:40.647Z,19.40
2022-11-20T07:28:08.435Z,21.10
2022-11-20T07:30:37.523Z,19.88
2022-11-20T07:33:05.537Z,23.83
2022-11-20T07:35:33.268Z,21.00
2022-11-20T07:38:01.188Z,23.17
2022-11-20T07:40:28.810Z,20.95
2022-11-20T07:42:57.156Z,22.63
2022-11-20T07:45:25.993Z,22.27
2022-11-20T07:47:55.069Z,22.00
2022-11-20T07:50:23.138Z,24.95
2022-11-20T07:52:50.784Z,21.92
2022-11-20T07:55:18.892Z,22.25
2022-11-20T07:57:46.539Z,23.23
2022-11-20T08:00:15.753Z,24.13
2022-11-20T08:02:43.928Z,22.65
2022-11-20T08:05:13.010Z,22.23
2022-11-20T08:07:41.431Z,22.40
2022-11-20T08:10:11.755Z,21.35
2022-11-20T08:13:02.984Z,23.77
2022-11-20T08:15:30.839Z,21.55
2022-11-20T08:18:29.311Z,21.02
2022-11-20T08:20:51.522Z,20.90
2022-11-20T08:23:19.198Z,19.83
2022-11-20T08:25:51.800Z,17.52
2022-11-20T08:28:21.624Z,19.08
2022-11-20T08:30:49.916Z,18.45
2022-11-20T08:33:18.304Z,17.00
2022-11-20T08:35:46.246Z,15.30
2022-11-20T08:38:15.302Z,13.52
2022-11-20T08:41:03.165Z,13.20
2022-11-20T08:43:30.940Z,12.82
2022-11-20T08:45:58.796Z,11.00
2022-11-20T08:48:26.462Z,10.90
2022-11-20T08:50:54.275Z,11.70
2022-11-20T08:53:23.381Z,11.63
2022-11-20T08:55:51.286Z,12.67
2022-11-20T08:58:18.908Z,13.30
2022-11-20T09:00:46.751Z,13.00
2022-11-20T09:03:14.556Z,12.60
2022-11-20T09:05:42.367Z,14.27
2022-11-20T09:08:10.143Z,14.37
2022-11-20T09:10:40.672Z,14.90
2022-11-20T09:13:08.417Z,16.27
2022-11-20T09:15:36.423Z,15.40
2022-11-20T09:18:05.518Z,17.40
2022-11-20T09:20:33.255Z,16.67
2022-11-20T09:23:00.980Z,17.48
2022-11-20T09:25:28.691Z,17.05
2022-11-20T09:28:01.455Z,16.95
2022-11-20T09:30:29.633Z,18.45
2022-11-20T09:32:57.395Z,17.75
2022-11-20T09:35:25.124Z,15.15
2022-11-20T09:37:52.869Z,14.45
2022-11-20T09:40:23.655Z,16.42
2022-11-20T09:42:59.158Z,18.45
2022-11-20T09:45:39.101Z,18.75
2022-11-20T09:48:27.591Z,20.83
2022-11-20T09:51:00.998Z,20.98
2022-11-20T09:53:36.451Z,18.73
2022-11-20T09:56:05.799Z,18.05
2022-11-20T09:58:37.165Z,19.50
2022-11-20T10:01:14.124Z,15.82
2022-11-20T10:03:53.672Z,16.23
2022-11-20T10:06:26.432Z,20.35
2022-11-20T10:09:03.680Z,16.42
2022-11-20T10:11:45.234Z,14.10
2022-11-20T10:14:23.733Z,14.88
2022-11-20T10:17:04.010Z,14.52
2022-11-20T10:19:49.432Z,15.15
2022-11-20T10:22:31.514Z,13.70
2022-11-20T10:25:07.859Z,8.32
2022-11-20T10:28:09.497Z,10.02
2022-11-20T10:30:40.661Z,8.52
2022-11-20T10:33:18.411Z,7.75
2022-11-20T10:35:50.829Z,8.55
2022-11-20T10:38:25.531Z,8.43
2022-11-20T10:41:17.937Z,8.40
2022-11-20T10:43:48.002Z,6.70
2022-11-20T10:46:19.340Z,7.60
2022-11-20T10:48:49.054Z,8.63
2022-11-20T10:51:30.838Z,8.20
2022-11-20T10:54:11.554Z,9.25
2022-11-20T10:56:48.473Z,8.60
2022-11-20T10:59:47.069Z,8.70
2022-11-20T11:02:20.529Z,9.20
2022-11-20T11:04:51.845Z,8.73
2022-11-20T11:07:24.503Z,8.32
2022-11-20T11:09:54.738Z,8.02
2022-11-20T11:12:24.208Z,9.05
2022-11-20T11:14:53.456Z,9.80
2022-11-20T11:17:29.005Z,9.00
2022-11-20T11:20:03.381Z,10.93
2022-11-20T11:22:33.205Z,8.60
2022-11-20T11:25:02.035Z,10.75
2022-11-20T11:27:29.894Z,9.77
2022-11-20T11:30:14.392Z,9.85
2022-11-20T11:32:42.257Z,9.23
2022-11-20T11:35:24.106Z,9.13
2022-11-20T11:37:55.028Z,9.57
2022-11-20T11:40:25.399Z,10.68
2022-11-20T11:42:58.422Z,10.40
2022-11-20T11:45:25.581Z,10.50
2022-11-20T11:47:55.145Z,10.55
2022-11-20T11:50:25.863Z,10.65
2022-11-20T11:53:04.971Z,10.38
2022-11-20T11:55:37.732Z,10.95
2022-11-20T11:58:19.036Z,12.10
2022-11-20T12:00:56.938Z,11.60
2022-11-20T12:03:29.812Z,9.70
2022-11-20T12:06:01.773Z,11.60
2022-11-20T12:08:34.393Z,11.13
2022-11-20T12:11:06.983Z,12.02
2022-11-20T12:13:46.034Z,12.65
2022-11-20T12:16:16.288Z,12.35
2022-11-20T12:18:44.750Z,11.32
2022-11-20T12:21:26.341Z,12.07
2022-11-20T12:24:06.303Z,13.00
2022-11-20T12:26:47.638Z,12.73
2022-11-20T12:29:26.321Z,12.30
2022-11-20T12:32:06.230Z,13.23
2022-11-20T12:34:49.455Z,12.02
2022-11-20T12:37:31.649Z,14.48
2022-11-20T12:40:10.931Z,12.65
2022-11-20T12:43:08.771Z,13.75
2022-11-20T12:45:53.427Z,12.95
2022-11-20T12:48:46.270Z,14.55
2022-11-20T12:51:33.052Z,14.82
2022-11-20T12:54:20.389Z,13.80
2022-11-20T12:57:02.353Z,14.32
2022-11-20T12:59:51.403Z,14.35
2022-11-20T13:02:28.407Z,13.60
2022-11-20T13:05:21.703Z,12.85
2022-11-20T13:07:53.147Z,15.02
2022-11-20T13:10:29.390Z,14.85
2022-11-20T13:13:01.280Z,14.52
2022-11-20T13:15:39.563Z,15.93
2022-11-20T13:18:12.129Z,14.50
2022-11-20T13:20:44.455Z,15.77
2022-11-20T13:23:12.456Z,15.48
2022-11-20T13:25:42.177Z,14.10
2022-11-20T13:28:31.926Z,15.18
2022-11-20T13:31:00.929Z,15.77
2022-11-20T13:33:32.528Z,14.98
2022-11-20T13:36:03.027Z,15.68
2022-11-20T13:38:42.475Z,14.57
2022-11-20T13:41:25.716Z,15.23
2022-11-20T13:43:54.288Z,14.82
2022-11-20T13:46:25.637Z,17.05
2022-11-20T13:48:54.654Z,16.08
2022-11-20T13:51:36.737Z,17.02
2022-11-20T13:54:41.585Z,16.02
2022-11-20T13:57:32.896Z,16.17
2022-11-20T14:00:06.091Z,17.77
2022-11-20T14:02:38.683Z,17.13
2022-11-20T14:05:07.669Z,18.15
2022-11-20T14:07:39.723Z,16.00
2022-11-20T14:10:08.120Z,17.98
2022-11-20T14:12:37.830Z,17.13
2022-11-20T14:15:06.431Z,16.20
2022-11-20T14:17:36.452Z,14.77
2022-11-20T14:20:08.158Z,14.95
2022-11-20T14:22:35.964Z,14.38
2022-11-20T14:25:07.295Z,15.57
2022-11-20T14:27:39.272Z,17.70
2022-11-20T14:30:08.083Z,15.70
2022-11-20T14:32:37.423Z,14.80
2022-11-20T14:35:11.436Z,18.40
2022-11-20T14:37:41.174Z,16.25
2022-11-20T14:40:26.296Z,16.17
2022-11-20T14:42:55.973Z,15.35
2022-11-20T14:45:24.704Z,15.52
2022-11-20T14:47:53.675Z,15.40
2022-11-20T14:50:24.837Z,16.90
2022-11-20T14:52:53.780Z,18.73
2022-11-20T14:55:29.388Z,16.45
2022-11-20T14:58:00.335Z,16.98
2022-11-20T15:00:28.832Z,20.20
2022-11-20T15:02:56.807Z,18.17
2022-11-20T15:05:26.648Z,17.98
2022-11-20T15:08:08.058Z,16.92
2022-11-20T15:10:36.481Z,18.60
2022-11-20T15:13:13.048Z,19.52
2022-11-20T15:15:46.155Z,17.85
2022-11-20T15:18:15.917Z,18.30
2022-11-20T15:20:44.267Z,18.23
2022-11-20T15:23:13.664Z,17.55
2022-11-20T15:25:43.127Z,19.25
2022-11-20T15:28:19.304Z,18.23
2022-11-20T15:30:47.393Z,19.17
2022-11-20T15:33:15.835Z,20.00
2022-11-20T15:35:43.759Z,20.48
2022-11-20T15:38:11.596Z,19.95
2022-11-20T15:40:39.276Z,19.85
2022-11-20T15:43:13.344Z,19.85
2022-11-20T15:45:46.193Z,19.60
2022-11-20T15:48:16.806Z,19.77
2022-11-20T15:50:51.664Z,21.55
2022-11-20T15:53:19.335Z,19.27
2022-11-20T15:55:47.291Z,20.15
2022-11-20T15:58:15.053Z,19.45
2022-11-20T16:00:44.646Z,19.60
2022-11-20T16:03:13.437Z,21.20
2022-11-20T16:05:41.441Z,23.30
2022-11-20T16:08:11.878Z,23.60
2022-11-20T16:10:40.686Z,23.25
2022-11-20T16:13:32.488Z,20.42
2022-11-20T16:16:06.487Z,23.55
2022-11-20T16:18:35.333Z,22.92
2022-11-20T16:21:03.243Z,26.27
2022-11-20T16:23:31.182Z,22.95
2022-11-20T16:25:58.933Z,24.30
2022-11-20T16:28:26.653Z,24.50
2022-11-20T16:30:54.398Z,23.05
2022-11-20T16:33:23.494Z,21.00
2022-11-20T16:35:51.225Z,25.58
2022-11-20T16:38:19.004Z,27.48
2022-11-20T16:40:46.709Z,24.23
2022-11-20T16:43:15.638Z,26.92
2022-11-20T16:45:45.002Z,25.75
2022-11-20T16:48:15.209Z,26.42
2022-11-20T16:50:52.081Z,24.25
2022-11-20T16:53:21.093Z,27.13
2022-11-20T16:55:49.057Z,25.23
2022-11-20T16:58:17.314Z,30.52
2022-11-20T17:00:51.176Z,22.92
2022-11-20T17:03:20.814Z,21.60
2022-11-20T17:05:50.441Z,23.42
2022-11-20T17:08:18.228Z,25.23
2022-11-20T17:10:45.880Z,21.10
2022-11-20T17:13:13.552Z,20.70
2022-11-20T17:15:41.270Z,22.10
2022-11-20T17:18:08.941Z,21.70
2022-11-20T17:20:36.676Z,21.80
2022-11-20T17:23:05.771Z,19.58
2022-11-20T17:25:34.935Z,21.60
2022-11-20T17:28:02.620Z,22.98
2022-11-20T17:30:30.540Z,19.77
2022-11-20T17:32:58.304Z,22.23
2022-11-20T17:35:26.071Z,21.45
2022-11-20T17:37:53.723Z,20.42
2022-11-20T17:40:27.158Z,19.48
2022-11-20T17:42:55.604Z,19.63
2022-11-20T17:45:23.314Z,17.73
2022-11-20T17:47:50.992Z,18.45
2022-11-20T17:50:18.729Z,17.23
2022-11-20T17:52:46.396Z,18.42
2022-11-20T17:55:14.071Z,18.00
2022-11-20T17:57:55.919Z,18.52
2022-11-20T18:00:25.111Z,16.13
2022-11-20T18:02:52.829Z,17.60
2022-11-20T18:05:20.558Z,15.60
2022-11-20T18:07:48.266Z,14.82
2022-11-20T18:10:16.049Z,14.52
2022-11-20T18:12:45.103Z,13.98
2022-11-20T18:15:12.749Z,14.70
2022-11-20T18:17:40.423Z,12.48
2022-11-20T18:22:57.250Z,12.35
2022-11-20T18:25:25.142Z,10.35
2022-11-20T18:27:54.270Z,10.90
2022-11-20T18:30:22.099Z,7.35
2022-11-20T18:32:50.037Z,8.13
2022-11-20T18:35:17.984Z,8.82
2022-11-20T18:37:45.727Z,6.35
2022-11-20T18:40:14.615Z,6.22
2022-11-20T18:42:59.635Z,4.88
2022-11-20T18:45:30.271Z,4.65
2022-11-20T18:47:58.138Z,5.03
2022-11-20T18:50:25.853Z,4.20
2022-11-20T18:52:53.652Z,5.78
2022-11-20T18:55:24.289Z,5.40
2022-11-20T18:57:52.567Z,5.43
2022-11-20T19:00:20.811Z,3.63
2022-11-20T19:02:49.858Z,4.30
2022-11-20T19:05:17.539Z,5.05
2022-11-20T19:07:45.427Z,4.55
2022-11-20T19:10:13.204Z,4.88
2022-11-20T19:12:40.921Z,5.05
2022-11-20T19:15:08.973Z,4.75
2022-11-20T19:17:36.834Z,5.88
2022-11-20T19:20:06.686Z,5.80
2022-11-20T19:22:34.426Z,5.03
2022-11-20T19:25:02.103Z,5.68
2022-11-20T19:27:29.907Z,5.75
2022-11-20T19:30:03.036Z,6.03
2022-11-20T19:32:31.053Z,4.90
2022-11-20T19:34:59.115Z,5.30
2022-11-20T19:37:28.324Z,5.32
2022-11-20T19:39:58.943Z,5.57
2022-11-20T19:42:26.623Z,6.55
2022-11-20T19:44:54.331Z,7.45
2022-11-20T19:47:22.946Z,7.43
2022-11-20T19:49:50.938Z,7.72
2022-11-20T19:52:18.712Z,7.93
2022-11-20T19:54:47.790Z,8.85
2022-11-20T19:57:15.582Z,8.02
2022-11-20T19:59:43.260Z,8.85
2022-11-20T20:02:12.763Z,7.55
2022-11-20T20:04:40.609Z,8.02
2022-11-20T20:07:08.513Z,8.85
2022-11-20T20:09:36.348Z,8.38
2022-11-20T20:12:05.935Z,10.48
2022-11-20T20:14:34.765Z,8.85
2022-11-20T20:17:02.637Z,10.05
2022-11-20T20:19:30.386Z,11.05
2022-11-20T20:21:58.065Z,10.40
2022-11-20T20:24:25.789Z,10.80
2022-11-20T20:26:57.937Z,14.38
2022-11-20T20:29:27.609Z,14.25
2022-11-20T20:31:55.389Z,14.20
2022-11-20T20:34:23.376Z,16.90
2022-11-20T20:36:51.171Z,14.85
2022-11-20T20:39:19.684Z,17.88
2022-11-20T20:41:47.527Z,17.20
2022-11-20T20:44:33.216Z,20.73
2022-11-20T20:47:02.377Z,22.23
2022-11-20T20:49:30.149Z,19.80
2022-11-20T20:51:57.949Z,19.25
2022-11-20T20:54:26.946Z,19.65
2022-11-20T20:56:56.948Z,19.17
2022-11-20T20:59:25.162Z,18.35
2022-11-20T21:01:53.297Z,20.50
2022-11-20T21:04:22.506Z,21.05
2022-11-20T21:06:50.150Z,20.33
2022-11-20T21:09:18.663Z,18.15
2022-11-20T21:11:46.328Z,18.20
2022-11-20T21:14:13.999Z,20.75
2022-11-20T21:16:44.482Z,22.27
2022-11-20T21:19:12.475Z,22.80
2022-11-20T21:21:58.837Z,25.90
2022-11-20T21:24:27.159Z,24.20
2022-11-20T21:26:54.925Z,24.10
2022-11-20T21:29:24.294Z,23.17
2022-11-20T21:31:52.822Z,23.48
2022-11-20T21:34:21.760Z,26.63
2022-11-20T21:36:51.616Z,26.40
2022-11-20T21:39:20.376Z,28.27
2022-11-20T21:41:48.106Z,28.40
2022-11-20T21:44:30.629Z,28.60
2022-11-20T21:46:58.839Z,26.42
2022-11-20T21:49:26.636Z,26.40
2022-11-20T21:51:55.854Z,25.80
2022-11-20T21:54:23.905Z,27.83
2022-11-20T21:56:51.808Z,27.67
2022-11-20T21:59:19.475Z,24.98
2022-11-20T22:01:47.161Z,23.60
2022-11-20T22:04:15.942Z,23.15
2022-11-20T22:06:43.641Z,25.55
2022-11-20T22:09:12.686Z,26.20
2022-11-20T22:11:40.390Z,23.60
2022-11-20T22:14:21.301Z,23.88
2022-11-20T22:16:50.426Z,24.65
2022-11-20T22:19:19.166Z,24.42
2022-11-20T22:21:47.233Z,23.83
2022-11-20T22:24:18.356Z,23.00
2022-11-20T22:26:46.103Z,24.15
2022-11-20T22:29:15.771Z,24.13
2022-11-20T22:31:43.895Z,26.42
2022-11-20T22:34:13.452Z,24.35
2022-11-20T22:36:41.971Z,26.15
2022-11-20T22:39:10.377Z,26.95
2022-11-20T22:41:39.398Z,25.90
2022-11-20T22:44:08.840Z,29.88
2022-11-20T22:46:38.040Z,27.98
2022-11-20T22:49:08.305Z,27.85
2022-11-20T22:51:38.084Z,25.20
2022-11-20T22:54:05.991Z,23.42
2022-11-20T22:56:34.183Z,26.85
2022-11-20T22:59:03.351Z,27.85
2022-11-20T23:01:32.828Z,23.10
2022-11-20T23:04:02.180Z,26.77
2022-11-20T23:06:30.013Z,22.73
2022-11-20T23:08:58.052Z,22.83
2022-11-20T23:11:27.783Z,22.65
2022-11-20T23:13:57.932Z,23.55
2022-11-20T23:16:29.020Z,23.95
2022-11-20T23:18:58.072Z,21.67
2022-11-20T23:21:25.967Z,19.25
2022-11-20T23:23:56.095Z,21.65
2022-11-20T23:26:25.836Z,18.35
2022-11-20T23:28:54.688Z,18.50
2022-11-20T23:31:22.585Z,16.65
2022-11-20T23:33:51.709Z,20.23
2022-11-20T23:36:19.533Z,18.05
2022-11-20T23:38:47.152Z,19.90
2022-11-20T23:41:15.494Z,20.13
2022-11-20T23:43:43.143Z,18.98
2022-11-20T23:46:15.211Z,18.85
2022-11-20T23:48:44.770Z,19.80
2022-11-20T23:51:14.450Z,18.98
2022-11-20T23:53:42.430Z,20.90
2022-11-20T23:56:10.261Z,16.75
2022-11-20T23:58:39.345Z,19.27
